Time;durP1;ratioP1;P1;durP2;ratioP2;P2;SDS_P1;SDS_P2;PMS_P1;PMS_P2;Temp;Humidity;BMP_temperature;BMP_pressure;BME280_temperature;BME280_humidity;BME280_pressure;Samples;Min_cycle;Max_cycle;Signal;HPM_P1;HPM_P2
2021/12/13 00:01:23;;;;;;;14.60;8.37;;;;;;;2.30;100.00;97598.84;5069531;28;20445;-74
2021/12/13 00:04:06;;;;;;;11.70;8.53;;;;;;;2.33;100.00;97610.59;5052908;28;20445;-74
2021/12/13 00:06:39;;;;;;;17.03;9.90;;;;;;;2.22;100.00;97609.66;5052758;28;20489;-74
2021/12/13 00:09:12;;;;;;;10.40;8.73;;;;;;;2.18;100.00;97597.34;5069384;28;20975;-74
2021/12/13 00:11:44;;;;;;;8.33;6.47;;;;;;;2.40;100.00;97610.41;5052718;28;20421;-74
2021/12/13 00:14:16;;;;;;;12.50;9.63;;;;;;;2.46;100.00;97612.84;5054116;28;20756;-75
2021/12/13 00:16:50;;;;;;;10.33;8.20;;;;;;;2.33;100.00;97605.38;5053897;28;20461;-74
2021/12/13 00:19:21;;;;;;;11.63;7.17;;;;;;;2.08;100.00;97566.69;5069343;28;20437;-74
2021/12/13 00:21:59;;;;;;;11.87;7.40;;;;;;;2.28;100.00;97603.50;5053745;28;20421;-74
2021/12/13 00:24:31;;;;;;;8.47;7.17;;;;;;;2.35;100.00;97601.50;5053819;28;20417;-74
2021/12/13 00:27:09;;;;;;;7.63;6.73;;;;;;;2.42;100.00;97603.16;5052390;28;20848;-74
2021/12/13 00:29:57;;;;;;;7.83;7.03;;;;;;;2.48;100.00;97610.78;5052199;28;20433;-74
2021/12/13 00:32:39;;;;;;;8.53;6.57;;;;;;;2.49;100.00;97604.53;5052326;28;20995;-75
2021/12/13 00:35:12;;;;;;;8.23;7.30;;;;;;;2.44;100.00;97609.72;5052243;28;20429;-74
2021/12/13 00:37:45;;;;;;;7.33;6.60;;;;;;;2.45;100.00;97606.06;5036512;28;20469;-75
2021/12/13 00:40:22;;;;;;;13.43;8.80;;;;;;;2.30;100.00;97583.19;5053871;28;20457;-74
2021/12/13 00:42:57;;;;;;;8.13;6.97;;;;;;;2.29;100.00;97593.84;5054810;28;20467;-74
2021/12/13 00:45:28;;;;;;;12.60;7.70;;;;;;;2.46;100.00;97601.63;5056212;28;20431;-74
2021/12/13 00:47:56;;;;;;;10.07;7.57;;;;;;;2.45;100.00;97593.00;5056374;28;20453;-74
2021/12/13 00:50:32;;;;;;;9.43;7.20;;;;;;;2.48;100.00;97608.19;5055186;28;20425;-74
2021/12/13 00:53:00;;;;;;;9.13;7.13;;;;;;;2.35;100.00;97598.09;5072182;28;20417;-74
2021/12/13 00:55:31;;;;;;;6.83;6.13;;;;;;;2.53;100.00;97605.63;5055753;28;20438;-74
2021/12/13 00:58:09;;;;;;;9.67;6.60;;;;;;;2.51;100.00;97607.69;5072095;28;20430;-74
2021/12/13 01:01:03;;;;;;;9.83;7.50;;;;;;;2.55;100.00;97610.63;5054225;28;20520;-74
2021/12/13 01:03:41;;;;;;;5.63;5.00;;;;;;;2.61;100.00;97609.66;5070014;28;21085;-74
2021/12/13 01:06:45;;;;;;;6.83;5.40;;;;;;;2.56;100.00;97615.59;5036831;28;20453;-74
2021/12/13 01:09:49;;;;;;;7.07;5.63;;;;;;;2.58;100.00;97610.13;5053692;28;20440;-74
2021/12/13 01:12:19;;;;;;;5.90;4.70;;;;;;;2.45;100.00;97587.78;5052341;28;20915;-74
2021/12/13 01:14:59;;;;;;;6.63;5.30;;;;;;;2.40;100.00;97584.31;5053212;28;20475;-74
2021/12/13 01:18:15;;;;;;;5.23;4.63;;;;;;;2.43;100.00;97600.31;5053153;28;20888;-74
2021/12/13 01:20:59;;;;;;;7.57;6.20;;;;;;;2.48;100.00;97605.56;5067635;28;20464;-74
2021/12/13 01:23:47;;;;;;;6.20;5.60;;;;;;;2.45;100.00;97594.84;5054454;28;20417;-74
2021/12/13 01:28:56;;;;;;;9.17;6.67;;;;;;;2.50;100.00;97611.34;5069544;28;20475;-74
2021/12/13 01:31:29;;;;;;;6.00;5.03;;;;;;;2.51;100.00;97612.13;5035875;28;20962;-75
2021/12/13 01:33:57;;;;;;;6.07;5.47;;;;;;;2.43;100.00;97612.56;5068802;28;20476;-75
2021/12/13 01:36:29;;;;;;;6.27;5.47;;;;;;;2.34;100.00;97593.91;5053497;28;20548;-76
2021/12/13 01:38:59;;;;;;;6.00;5.47;;;;;;;2.39;100.00;97612.22;5068714;28;20437;-75
2021/12/13 01:41:34;;;;;;;6.37;5.57;;;;;;;2.47;100.00;97614.44;5053899;28;20468;-75
2021/12/13 01:44:10;;;;;;;7.73;5.30;;;;;;;2.53;100.00;97617.88;5052078;28;20437;-75
2021/12/13 01:46:41;;;;;;;7.33;5.97;;;;;;;2.49;100.00;97619.41;5053362;28;20475;-74
2021/12/13 01:49:10;;;;;;;6.63;5.60;;;;;;;2.54;100.00;97622.09;5068763;28;20897;-75
2021/12/13 01:51:39;;;;;;;6.57;5.80;;;;;;;2.41;100.00;97619.84;5051738;28;20974;-74
2021/12/13 01:54:13;;;;;;;6.57;5.80;;;;;;;2.43;100.00;97613.34;5053202;28;20980;-74
2021/12/13 01:57:09;;;;;;;9.00;6.10;;;;;;;2.45;100.00;97613.91;5053595;28;20445;-75
2021/12/13 01:59:49;;;;;;;6.13;5.43;;;;;;;2.53;100.00;97615.28;5053233;28;20428;-75
2021/12/13 02:02:36;;;;;;;6.20;5.13;;;;;;;2.58;100.00;97628.41;5067225;28;20877;-74
2021/12/13 02:05:11;;;;;;;6.00;4.97;;;;;;;2.57;100.00;97632.84;5051701;28;20417;-74
2021/12/13 02:07:47;;;;;;;9.27;6.63;;;;;;;2.56;100.00;97633.09;5050359;28;20567;-75
2021/12/13 02:10:20;;;;;;;6.00;4.60;;;;;;;2.54;100.00;97628.13;5051528;28;20413;-75
2021/12/13 02:12:57;;;;;;;8.07;5.93;;;;;;;2.36;100.00;97612.72;5051720;28;20523;-75
2021/12/13 02:18:16;;;;;;;7.03;5.30;;;;;;;2.29;100.00;97620.75;5050368;28;20447;-74
2021/12/13 02:20:47;;;;;;;5.13;4.63;;;;;;;2.19;100.00;97610.16;5051437;28;20540;-75
2021/12/13 02:23:14;;;;;;;6.90;5.50;;;;;;;2.40;100.00;97623.47;5066569;28;20495;-74
2021/12/13 02:25:55;;;;;;;4.37;3.97;;;;;;;2.51;100.00;97623.34;5050203;28;20524;-74
2021/12/13 02:28:25;;;;;;;5.60;5.10;;;;;;;2.40;100.00;97619.03;5066987;28;20928;-74
2021/12/13 02:31:04;;;;;;;6.70;5.13;;;;;;;2.49;100.00;97619.41;5050302;28;20521;-74
2021/12/13 02:33:41;;;;;;;5.63;4.70;;;;;;;2.34;100.00;97584.25;5051347;28;20486;-75
2021/12/13 02:36:13;;;;;;;5.43;4.87;;;;;;;2.43;100.00;97602.91;5051346;28;20792;-75
2021/12/13 02:38:42;;;;;;;6.17;5.20;;;;;;;2.45;100.00;97611.28;5051421;28;20422;-74
2021/12/13 02:41:10;;;;;;;5.00;4.50;;;;;;;2.49;100.00;97617.59;5049977;28;20469;-75
2021/12/13 02:43:45;;;;;;;5.70;5.03;;;;;;;2.45;100.00;97615.72;5066465;28;20498;-74
2021/12/13 02:46:13;;;;;;;7.10;6.40;;;;;;;2.40;100.00;97613.81;5049697;28;20510;-74
2021/12/13 02:48:57;;;;;;;6.50;5.20;;;;;;;2.42;100.00;97611.78;5066441;28;20936;-75
2021/12/13 02:51:27;;;;;;;5.07;4.67;;;;;;;2.29;100.00;97618.13;5033354;28;20433;-75
2021/12/13 02:54:00;;;;;;;6.47;4.93;;;;;;;2.29;100.00;97617.34;5049779;28;20444;-75
2021/12/13 02:56:35;;;;;;;5.70;5.10;;;;;;;2.06;100.00;97610.50;5049647;28;20492;-75
2021/12/13 02:59:05;;;;;;;5.57;4.87;;;;;;;2.07;100.00;97622.50;5033437;28;20912;-74
2021/12/13 03:01:38;;;;;;;8.47;5.63;;;;;;;2.07;100.00;97628.50;5050886;28;20534;-74
2021/12/13 03:04:09;;;;;;;5.97;5.37;;;;;;;1.96;100.00;97612.94;5051155;28;20460;-73
2021/12/13 03:06:41;;;;;;;9.83;6.20;;;;;;;2.05;100.00;97630.56;5049600;28;20499;-74
2021/12/13 03:09:12;;;;;;;6.17;5.53;;;;;;;2.03;100.00;97631.84;5050952;28;20467;-73
2021/12/13 03:11:39;;;;;;;6.30;4.30;;;;;;;1.98;100.00;97626.53;5049595;28;20517;-74
2021/12/13 03:14:18;;;;;;;5.77;5.10;;;;;;;2.02;100.00;97631.06;5049458;28;20503;-73
2021/12/13 03:17:00;;;;;;;5.03;4.63;;;;;;;1.88;100.00;97608.16;5050831;28;20491;-73
2021/12/13 03:19:35;;;;;;;5.40;4.90;;;;;;;2.06;100.00;97632.16;5049676;28;20457;-74
2021/12/13 03:22:02;;;;;;;4.97;4.57;;;;;;;2.04;100.00;97633.44;5049832;28;20488;-74
2021/12/13 03:24:35;;;;;;;5.93;4.40;;;;;;;2.01;100.00;97626.88;5066163;28;20453;-73
2021/12/13 03:27:04;;;;;;;5.40;4.90;;;;;;;2.03;100.00;97629.25;5050751;28;20480;-74
2021/12/13 03:29:47;;;;;;;6.80;4.83;;;;;;;2.01;100.00;97629.47;5066022;28;20466;-74
2021/12/13 03:32:16;;;;;;;5.67;4.30;;;;;;;2.01;100.00;97637.31;5032953;28;20464;-74
2021/12/13 03:35:14;;;;;;;5.07;4.20;;;;;;;2.04;100.00;97647.25;5052802;28;20986;-74
2021/12/13 03:37:55;;;;;;;5.60;5.00;;;;;;;2.01;100.00;97637.31;5037174;28;21167;-74
2021/12/13 03:40:25;;;;;;;6.20;5.40;;;;;;;2.03;100.00;97630.03;5069703;28;20494;-74
2021/12/13 03:42:59;;;;;;;6.17;5.57;;;;;;;2.00;100.00;97633.13;5054312;28;20436;-74
2021/12/13 03:45:37;;;;;;;6.43;5.83;;;;;;;2.10;100.00;97649.94;5054382;28;20416;-74
2021/12/13 03:48:07;;;;;;;5.10;4.40;;;;;;;2.09;100.00;97651.75;5054346;28;20884;-74
2021/12/13 03:50:41;;;;;;;5.20;4.70;;;;;;;2.02;100.00;97640.69;5052865;28;20473;-74
2021/12/13 03:53:16;;;;;;;5.83;5.20;;;;;;;2.16;100.00;97662.81;5054219;28;20877;-74
2021/12/13 03:55:46;;;;;;;4.90;4.17;;;;;;;2.05;100.00;97643.63;5069239;28;20482;-74
2021/12/13 03:58:16;;;;;;;4.93;4.13;;;;;;;2.22;100.00;97653.22;5069485;28;20448;-74
2021/12/13 04:00:51;;;;;;;5.60;4.33;;;;;;;2.22;100.00;97658.47;5069282;28;20457;-74
2021/12/13 04:03:19;;;;;;;4.50;4.03;;;;;;;2.12;100.00;97651.25;5054239;28;20412;-74
2021/12/13 04:05:47;;;;;;;5.77;4.30;;;;;;;2.20;100.00;97658.69;5069990;28;20472;-74
2021/12/13 04:08:18;;;;;;;6.13;4.20;;;;;;;2.29;100.00;97653.88;5069435;28;20441;-74
2021/12/13 04:10:59;;;;;;;5.30;4.47;;;;;;;2.37;100.00;97658.66;5061943;28;20539;-74
2021/12/13 04:13:31;;;;;;;5.97;4.27;;;;;;;2.24;100.00;97644.13;5082142;28;20424;-74
2021/12/13 04:16:16;;;;;;;5.20;3.93;;;;;;;2.32;100.00;97658.59;5065808;28;21057;-74
2021/12/13 04:21:42;;;;;;;5.00;4.50;;;;;;;2.06;100.00;97641.78;5053991;28;20503;-74
2021/12/13 04:24:18;;;;;;;6.97;5.23;;;;;;;2.10;100.00;97673.41;5052275;28;20437;-74
2021/12/13 04:26:52;;;;;;;9.00;5.20;;;;;;;2.19;100.00;97675.38;5052336;28;20469;-74
2021/12/13 04:29:28;;;;;;;6.20;4.87;;;;;;;2.11;100.00;97674.97;5052188;28;20469;-73
2021/12/13 04:31:59;;;;;;;5.83;4.00;;;;;;;2.12;100.00;97671.34;5053448;28;20424;-74
2021/12/13 04:34:28;;;;;;;6.73;4.93;;;;;;;2.05;100.00;97661.09;5052118;28;20491;-74
2021/12/13 04:37:15;;;;;;;6.60;5.50;;;;;;;2.08;100.00;97663.22;5053188;28;20562;-74
2021/12/13 04:39:45;;;;;;;4.67;4.10;;;;;;;2.04;100.00;97670.72;5053307;28;20835;-74
2021/12/13 04:42:16;;;;;;;8.60;5.53;;;;;;;1.97;100.00;97664.09;5051789;28;20544;-74
2021/12/13 04:44:50;;;;;;;5.70;4.90;;;;;;;2.06;100.00;97675.69;5051764;28;21006;-74
2021/12/13 04:47:22;;;;;;;6.27;4.80;;;;;;;2.02;100.00;97678.00;5051709;28;20564;-74
2021/12/13 04:50:02;;;;;;;6.10;5.00;;;;;;;2.08;100.00;97684.88;5053098;28;20426;-74
2021/12/13 04:52:32;;;;;;;5.23;4.43;;;;;;;2.20;100.00;97678.78;5051677;28;20455;-74
2021/12/13 04:55:00;;;;;;;6.27;4.43;;;;;;;2.39;100.00;97677.47;5052999;28;20425;-74
2021/12/13 04:57:27;;;;;;;11.47;6.30;;;;;;;2.62;100.00;97698.16;5052871;28;20485;-74
2021/12/13 05:00:00;;;;;;;7.03;5.20;;;;;;;2.52;100.00;97679.75;5067899;28;20519;-74
2021/12/13 05:02:28;;;;;;;4.47;3.73;;;;;;;2.63;100.00;97684.09;5051393;28;20503;-74
2021/12/13 05:04:58;;;;;;;5.37;3.93;;;;;;;2.38;100.00;97681.91;5052749;28;20437;-74
2021/12/13 05:07:26;;;;;;;4.70;4.10;;;;;;;2.37;100.00;97692.59;5051570;28;20546;-74
2021/12/13 05:09:53;;;;;;;7.50;4.50;;;;;;;2.13;100.00;97663.28;5051394;28;20472;-74
2021/12/13 05:12:25;;;;;;;5.70;4.70;;;;;;;2.24;100.00;97695.53;5051250;28;20432;-74
2021/12/13 05:14:56;;;;;;;6.40;5.00;;;;;;;2.19;100.00;97695.47;5051276;28;20438;-73
2021/12/13 05:17:28;;;;;;;7.60;5.20;;;;;;;2.17;100.00;97700.94;5052504;28;20445;-74
2021/12/13 05:20:14;;;;;;;5.83;4.97;;;;;;;2.17;100.00;97700.94;5051344;28;20436;-74
2021/12/13 05:22:53;;;;;;;5.43;4.67;;;;;;;2.13;100.00;97697.19;5067876;28;20461;-74
2021/12/13 05:25:30;;;;;;;8.10;5.33;;;;;;;1.98;100.00;97671.66;5050949;28;20471;-73
2021/12/13 05:28:06;;;;;;;8.60;4.80;;;;;;;2.07;100.00;97685.09;5034418;28;20465;-74
2021/12/13 05:30:35;;;;;;;5.23;4.50;;;;;;;2.07;100.00;97670.25;5051021;28;20794;-74
2021/12/13 05:33:06;;;;;;;5.60;5.10;;;;;;;2.19;100.00;97683.22;5052128;28;20437;-74
2021/12/13 05:35:42;;;;;;;7.20;5.77;;;;;;;2.34;100.00;97696.47;5050663;28;20483;-74
2021/12/13 05:38:21;;;;;;;13.17;8.10;;;;;;;2.29;100.00;97691.19;5050778;28;20944;-74
2021/12/13 05:40:47;;;;;;;10.73;8.00;;;;;;;2.07;100.00;97677.28;5052217;28;20415;-74
2021/12/13 05:43:23;;;;;;;18.50;6.53;;;;;;;2.18;100.00;97709.53;5050571;28;20441;-74
2021/12/13 05:46:06;;;;;;;8.50;5.80;;;;;;;2.09;100.00;97690.88;5067092;28;20874;-74
2021/12/13 05:48:56;;;;;;;5.77;4.90;;;;;;;2.05;100.00;97690.56;5067122;28;20484;-74
2021/12/13 05:51:45;;;;;;;9.43;5.27;;;;;;;2.12;100.00;97700.81;5033908;28;20432;-74
2021/12/13 05:54:29;;;;;;;5.63;4.47;;;;;;;2.14;100.00;97706.63;5051640;28;20421;-74
2021/12/13 05:57:05;;;;;;;5.70;5.10;;;;;;;2.10;100.00;97705.50;5049811;28;20453;-74
2021/12/13 05:59:53;;;;;;;6.37;4.63;;;;;;;2.33;100.00;97725.41;5050371;28;20490;-74
2021/12/13 06:02:39;;;;;;;8.27;5.20;;;;;;;2.30;100.00;97700.59;5050445;28;20457;-74
2021/12/13 06:05:16;;;;;;;9.37;6.70;;;;;;;2.57;100.00;97732.03;5051768;28;20424;-74
2021/12/13 06:07:52;;;;;;;9.93;5.20;;;;;;;2.41;100.00;97732.88;5051643;28;20870;-74
2021/12/13 06:10:21;;;;;;;5.60;4.07;;;;;;;2.35;100.00;97725.97;5051665;28;20421;-74
2021/12/13 06:13:16;;;;;;;5.97;4.60;;;;;;;2.27;100.00;97723.75;5050464;28;20434;-74
2021/12/13 06:15:43;;;;;;;8.30;4.80;;;;;;;2.28;100.00;97735.78;5050055;28;20495;-74
2021/12/13 06:18:23;;;;;;;7.30;4.80;;;;;;;2.29;100.00;97732.94;5050190;28;20444;-74
2021/12/13 06:20:55;;;;;;;7.00;4.67;;;;;;;2.28;100.00;97728.75;5050029;28;20414;-74
2021/12/13 06:23:24;;;;;;;7.40;4.30;;;;;;;2.33;100.00;97738.47;5049942;28;20487;-74
2021/12/13 06:26:04;;;;;;;6.67;4.97;;;;;;;2.28;100.00;97733.97;5049990;28;20425;-74
2021/12/13 06:28:57;;;;;;;8.63;4.57;;;;;;;2.38;100.00;97741.16;5066624;28;20485;-74
2021/12/13 06:31:36;;;;;;;6.13;4.90;;;;;;;2.23;100.00;97717.44;5050060;28;20413;-74
2021/12/13 06:34:08;;;;;;;5.67;4.97;;;;;;;2.16;100.00;97722.03;5049982;28;20912;-74
2021/12/13 06:36:38;;;;;;;9.00;5.17;;;;;;;2.24;100.00;97739.88;5066349;28;20535;-74
2021/12/13 06:39:11;;;;;;;12.03;8.97;;;;;;;2.26;100.00;97746.44;5051084;28;20491;-74
2021/12/13 06:41:42;;;;;;;10.33;7.47;;;;;;;2.25;100.00;97738.84;5051126;28;20853;-74
2021/12/13 06:44:26;;;;;;;8.97;6.30;;;;;;;2.22;100.00;97741.94;5049759;28;20461;-74
2021/12/13 06:46:56;;;;;;;7.83;5.00;;;;;;;2.23;100.00;97743.53;5066259;28;20453;-74
2021/12/13 06:49:35;;;;;;;6.70;4.97;;;;;;;2.21;100.00;97746.38;5049711;28;20441;-74
2021/12/13 06:52:13;;;;;;;6.77;5.00;;;;;;;2.12;100.00;97734.75;5066465;28;20467;-74
2021/12/13 06:54:56;;;;;;;8.43;4.43;;;;;;;2.39;100.00;97745.34;5049707;28;20432;-74
2021/12/13 06:57:40;;;;;;;10.57;5.40;;;;;;;2.36;100.00;97749.22;5066239;28;20457;-74
2021/12/13 07:00:12;;;;;;;9.23;5.43;;;;;;;2.34;100.00;97759.09;5051020;28;20492;-74
2021/12/13 07:03:05;;;;;;;10.63;5.47;;;;;;;2.24;100.00;97751.13;5066222;28;20888;-74
2021/12/13 07:05:47;;;;;;;12.10;7.40;;;;;;;2.23;100.00;97756.56;5049650;28;20468;-74
2021/12/13 07:08:24;;;;;;;9.00;6.00;;;;;;;2.35;100.00;97755.47;5049590;28;20428;-74
2021/12/13 07:10:51;;;;;;;9.27;5.63;;;;;;;2.46;100.00;97771.28;5055101;28;20471;-74
2021/12/13 07:13:32;;;;;;;8.40;5.47;;;;;;;2.60;100.00;97773.34;5053623;28;20803;-74
2021/12/13 07:16:26;;;;;;;13.23;6.27;;;;;;;2.78;100.00;97777.50;5070082;28;20456;-74
2021/12/13 07:19:00;;;;;;;12.43;6.53;;;;;;;2.84;100.00;97775.75;5053253;28;20430;-74
2021/12/13 07:21:31;;;;;;;7.60;5.53;;;;;;;2.87;100.00;97789.13;5069962;28;20507;-74
2021/12/13 07:24:09;;;;;;;13.73;5.20;;;;;;;2.67;100.00;97787.03;5053373;28;20460;-74
2021/12/13 07:26:40;;;;;;;19.23;6.60;;;;;;;2.56;100.00;97800.16;5053167;28;20452;-75
2021/12/13 07:29:19;;;;;;;14.00;6.97;;;;;;;2.48;100.00;97788.28;5053294;28;20464;-75
2021/12/13 07:32:03;;;;;;;9.10;4.70;;;;;;;2.40;100.00;97772.22;5054537;28;20450;-75
2021/12/13 07:34:30;;;;;;;11.07;6.23;;;;;;;2.56;100.00;97781.88;5069814;28;20433;-75
2021/12/13 07:37:01;;;;;;;13.43;5.20;;;;;;;2.82;100.00;97783.06;5053016;28;20563;-75
2021/12/13 07:39:31;;;;;;;10.73;5.30;;;;;;;2.80;100.00;97791.09;5054506;28;20495;-75
2021/12/13 07:42:03;;;;;;;11.50;6.37;;;;;;;2.85;100.00;97782.56;5053049;28;20492;-75
2021/12/13 07:44:46;;;;;;;9.87;5.57;;;;;;;2.93;100.00;97780.31;5069546;28;20891;-75
2021/12/13 07:47:15;;;;;;;13.33;5.60;;;;;;;2.81;100.00;97790.09;5052803;28;20488;-75
2021/12/13 07:49:46;;;;;;;12.90;6.57;;;;;;;2.66;100.00;97787.25;5054414;28;20433;-75
2021/12/13 07:52:28;;;;;;;14.00;6.30;;;;;;;2.60;100.00;97798.66;5052678;28;20870;-75
2021/12/13 07:54:57;;;;;;;17.40;7.00;;;;;;;2.56;100.00;97794.94;5054090;28;20445;-75
2021/12/13 07:57:30;;;;;;;12.80;5.23;;;;;;;2.51;100.00;97781.78;5052707;28;20483;-75
2021/12/13 07:59:58;;;;;;;11.90;6.17;;;;;;;2.38;100.00;97777.69;5069354;28;20433;-75
2021/12/13 08:02:33;;;;;;;17.30;5.83;;;;;;;2.49;100.00;97791.69;5069200;28;20465;-75
2021/12/13 08:05:11;;;;;;;12.17;6.50;;;;;;;2.60;100.00;97807.28;5052794;28;21258;-75
2021/12/13 08:07:54;;;;;;;12.17;7.00;;;;;;;2.89;100.00;97802.72;5052660;28;20453;-75
2021/12/13 08:10:33;;;;;;;11.57;5.87;;;;;;;2.79;100.00;97807.00;5069466;28;20440;-75
2021/12/13 08:13:06;;;;;;;14.73;8.00;;;;;;;2.68;100.00;97782.59;5052576;28;20422;-75
2021/12/13 08:15:33;;;;;;;14.60;7.17;;;;;;;2.84;100.00;97813.13;5053743;28;20475;-75
2021/12/13 08:18:07;;;;;;;12.67;8.63;;;;;;;3.04;100.00;97817.03;5052393;28;20529;-75
2021/12/13 08:20:47;;;;;;;15.50;9.00;;;;;;;2.99;100.00;97820.38;5068652;28;20437;-75
2021/12/13 08:23:21;;;;;;;8.73;6.77;;;;;;;2.93;100.00;97814.28;5035721;28;20449;-75
2021/12/13 08:25:51;;;;;;;8.40;7.37;;;;;;;2.84;100.00;97820.97;5052069;28;20479;-76
2021/12/13 08:28:30;;;;;;;13.03;7.20;;;;;;;2.87;100.00;97823.09;5069107;28;20437;-75
2021/12/13 08:30:59;;;;;;;10.80;6.60;;;;;;;2.58;100.00;97775.41;5053406;28;20939;-77
2021/12/13 08:33:46;;;;;;;8.60;6.33;;;;;;;2.82;100.00;97820.41;5071167;28;20846;-76
2021/12/13 08:36:28;;;;;;;8.10;6.20;;;;;;;2.89;100.00;97823.63;5052814;28;20457;-76
2021/12/13 08:39:01;;;;;;;13.47;6.27;;;;;;;2.87;100.00;97825.69;5056191;28;20468;-76
2021/12/13 08:41:38;;;;;;;11.30;5.77;;;;;;;2.90;100.00;97827.03;5037804;28;20480;-76
2021/12/13 08:44:25;;;;;;;7.87;6.27;;;;;;;2.89;100.00;97825.44;5071920;28;20812;-74
2021/12/13 08:46:51;;;;;;;12.43;6.97;;;;;;;2.92;100.00;97833.59;5052785;28;20531;-74
2021/12/13 08:49:24;;;;;;;11.03;6.77;;;;;;;2.86;100.00;97816.28;5057363;28;20544;-76
2021/12/13 08:52:04;;;;;;;13.20;5.90;;;;;;;3.01;100.00;97830.59;5055955;28;20449;-76
2021/12/13 08:54:40;;;;;;;7.90;5.40;;;;;;;3.03;100.00;97829.31;5055374;28;20417;-76
2021/12/13 08:57:12;;;;;;;9.60;5.17;;;;;;;2.96;100.00;97815.63;5053875;28;20502;-76
2021/12/13 08:59:51;;;;;;;7.27;5.37;;;;;;;3.08;100.00;97833.84;5053438;28;20410;-76
2021/12/13 09:02:20;;;;;;;7.00;5.07;;;;;;;3.18;100.00;97829.50;5074304;28;20453;-75
2021/12/13 09:05:07;;;;;;;9.10;6.13;;;;;;;3.24;100.00;97838.22;5035554;28;20536;-76
2021/12/13 09:07:35;;;;;;;9.20;5.73;;;;;;;3.09;100.00;97806.66;5068359;28;20502;-76
2021/12/13 09:10:04;;;;;;;8.83;6.17;;;;;;;3.15;100.00;97816.16;5058477;28;20441;-76
2021/12/13 09:12:42;;;;;;;9.10;4.97;;;;;;;3.30;100.00;97826.00;5070518;28;20438;-76
2021/12/13 09:15:24;;;;;;;10.50;6.93;;;;;;;3.45;100.00;97837.44;5070948;28;20413;-76
2021/12/13 09:17:52;;;;;;;7.27;5.57;;;;;;;3.42;100.00;97829.31;5051409;28;20465;-76
2021/12/13 09:20:30;;;;;;;9.13;7.43;;;;;;;3.47;100.00;97838.00;5073282;28;20822;-76
2021/12/13 09:23:14;;;;;;;9.70;7.10;;;;;;;3.45;100.00;97845.28;5054702;28;21370;-76
2021/12/13 09:25:45;;;;;;;12.10;8.83;;;;;;;3.46;100.00;97836.41;5070950;28;20459;-76
2021/12/13 09:28:32;;;;;;;13.23;8.70;;;;;;;3.56;100.00;97851.44;5070650;28;20504;-76
2021/12/13 09:31:04;;;;;;;9.40;6.70;;;;;;;3.64;100.00;97845.00;5052759;28;20457;-76
2021/12/13 09:33:34;;;;;;;8.87;5.70;;;;;;;3.66;100.00;97856.00;5054139;28;20417;-76
2021/12/13 09:36:19;;;;;;;6.90;6.20;;;;;;;3.63;100.00;97849.44;5069249;28;20465;-76
2021/12/13 09:39:12;;;;;;;9.70;7.30;;;;;;;3.66;100.00;97862.03;5069600;28;20490;-76
2021/12/13 09:42:05;;;;;;;12.07;7.20;;;;;;;3.74;100.00;97860.78;5051902;28;20429;-76
2021/12/13 09:44:40;;;;;;;9.43;7.50;;;;;;;3.65;100.00;97849.19;5052485;28;20545;-76
2021/12/13 09:47:12;;;;;;;8.57;7.60;;;;;;;3.76;100.00;97863.97;5050775;28;20453;-76
2021/12/13 09:49:50;;;;;;;11.07;7.57;;;;;;;3.75;100.00;97873.66;5052280;28;20900;-76
2021/12/13 09:52:16;;;;;;;9.10;6.03;;;;;;;3.75;100.00;97863.19;5050955;28;20475;-76
2021/12/13 09:54:46;;;;;;;10.20;6.57;;;;;;;3.74;100.00;97855.56;5052154;28;20441;-76
2021/12/13 09:57:17;;;;;;;11.50;6.70;;;;;;;3.76;100.00;97849.06;5052453;28;21100;-76
2021/12/13 10:00:12;;;;;;;12.10;7.93;;;;;;;3.78;100.00;97849.63;5050438;28;20434;-76
2021/12/13 10:02:44;;;;;;;8.00;6.67;;;;;;;3.74;100.00;97848.53;5051673;28;20453;-76
2021/12/13 10:05:17;;;;;;;8.90;6.40;;;;;;;3.70;100.00;97844.81;5051579;28;20497;-76
2021/12/13 10:07:51;;;;;;;9.83;8.20;;;;;;;3.69;100.00;97834.59;5050190;28;20976;-76
2021/12/13 10:10:29;;;;;;;12.67;7.57;;;;;;;3.66;100.00;97833.25;5050305;28;20417;-76
2021/12/13 10:13:00;;;;;;;10.50;7.73;;;;;;;3.79;100.00;97848.59;5033738;28;20433;-75
2021/12/13 10:15:40;;;;;;;12.37;8.77;;;;;;;3.81;100.00;97837.88;5051618;28;20417;-76
2021/12/13 10:18:15;;;;;;;13.67;8.97;;;;;;;3.91;100.00;97839.81;5033615;28;20461;-76
2021/12/13 10:20:48;;;;;;;13.17;8.70;;;;;;;3.91;100.00;97842.44;5050024;28;20470;-76
2021/12/13 10:23:18;;;;;;;11.07;9.23;;;;;;;3.77;100.00;97819.28;5066631;28;20476;-76
2021/12/13 10:25:48;;;;;;;16.27;10.60;;;;;;;3.98;100.00;97845.63;5050047;28;20515;-76
2021/12/13 10:28:22;;;;;;;12.07;10.77;;;;;;;3.64;100.00;97792.69;5066905;28;20440;-76
2021/12/13 10:30:54;;;;;;;10.47;8.30;;;;;;;3.92;100.00;97833.53;5049943;28;20468;-76
2021/12/13 10:33:24;;;;;;;16.07;10.03;;;;;;;3.94;100.00;97836.69;5050172;28;20425;-76
2021/12/13 10:35:53;;;;;;;13.50;8.60;;;;;;;3.92;100.00;97839.56;5066515;28;20899;-76
2021/12/13 10:38:28;;;;;;;13.97;9.83;;;;;;;3.93;100.00;97832.50;5050192;28;20449;-76
2021/12/13 10:41:04;;;;;;;8.93;7.87;;;;;;;3.98;100.00;97833.34;5049945;28;20424;-76
2021/12/13 10:43:35;;;;;;;15.50;8.13;;;;;;;4.02;100.00;97833.66;5050959;28;20475;-75
2021/12/13 10:46:10;;;;;;;9.37;6.67;;;;;;;4.05;100.00;97825.31;5050075;28;20988;-76
2021/12/13 10:48:45;;;;;;;8.03;6.60;;;;;;;4.42;100.00;97843.72;5066412;28;20531;-75
2021/12/13 10:51:25;;;;;;;10.07;6.40;;;;;;;4.34;100.00;97824.00;5050129;28;20855;-76
2021/12/13 10:53:52;;;;;;;43.77;33.53;;;;;;;4.38;100.00;97827.69;5049798;28;20425;-76
2021/12/13 10:56:25;;;;;;;8.20;7.40;;;;;;;4.45;100.00;97838.78;5051027;28;20457;-76
2021/12/13 10:58:55;;;;;;;9.07;6.87;;;;;;;4.51;100.00;97841.44;5066392;28;20904;-76
2021/12/13 11:01:27;;;;;;;7.87;7.17;;;;;;;4.16;100.00;97811.28;5066433;28;20445;-76
2021/12/13 11:03:56;;;;;;;12.73;8.70;;;;;;;4.30;100.00;97837.84;5049823;28;20457;-76
2021/12/13 11:06:24;;;;;;;10.57;7.90;;;;;;;4.34;100.00;97831.88;5050921;28;20487;-76
2021/12/13 11:08:51;;;;;;;9.10;6.60;;;;;;;4.44;100.00;97833.78;5050919;28;20506;-76
2021/12/13 11:11:27;;;;;;;8.30;5.83;;;;;;;4.34;100.00;97821.38;5035630;28;20936;-76
2021/12/13 11:13:58;;;;;;;11.03;7.00;;;;;;;4.24;100.00;97810.03;5051448;28;20956;-76
2021/12/13 11:16:34;;;;;;;7.20;5.63;;;;;;;4.38;100.00;97827.69;5049518;28;20538;-76
2021/12/13 11:19:04;;;;;;;10.10;5.70;;;;;;;4.34;100.00;97804.91;5049726;28;20448;-76
2021/12/13 11:21:37;;;;;;;5.40;4.90;;;;;;;4.53;100.00;97834.09;5051043;28;20428;-76
2021/12/13 11:24:09;;;;;;;7.73;6.10;;;;;;;4.61;100.00;97828.41;5032840;28;20469;-76
2021/12/13 11:26:40;;;;;;;7.83;6.30;;;;;;;4.50;100.00;97822.31;5049547;28;20476;-76
2021/12/13 11:29:09;;;;;;;5.47;4.90;;;;;;;4.70;100.00;97812.00;5066050;28;20525;-76
2021/12/13 11:31:55;;;;;;;5.30;4.40;;;;;;;4.80;100.00;97829.59;5049343;28;20487;-76
2021/12/13 11:35:01;;;;;;;7.33;5.47;;;;;;;4.87;100.00;97824.16;5050770;28;20413;-76
2021/12/13 11:38:00;;;;;;;6.27;5.63;;;;;;;4.84;100.00;97822.84;5050720;28;20479;-76
2021/12/13 11:41:06;;;;;;;5.73;5.03;;;;;;;4.69;100.00;97820.91;5049377;28;20491;-76
2021/12/13 11:44:01;;;;;;;5.10;4.60;;;;;;;4.42;100.00;97801.84;5018888;28;20940;-76
2021/12/13 11:47:00;;;;;;;5.43;4.87;;;;;;;4.52;100.00;97825.47;5032346;28;20465;-76
2021/12/13 11:49:51;;;;;;;4.87;4.47;;;;;;;4.57;100.00;97827.34;5065699;28;20428;-76
2021/12/13 11:52:46;;;;;;;6.17;4.80;;;;;;;4.58;100.00;97823.69;5050538;28;20527;-76
2021/12/13 11:55:28;;;;;;;7.37;5.70;;;;;;;4.43;100.00;97819.91;5066827;28;20417;-76
2021/12/13 11:58:16;;;;;;;7.47;6.03;;;;;;;4.60;100.00;97822.41;5052563;28;20499;-76
2021/12/13 12:01:14;;;;;;;7.87;7.07;;;;;;;4.74;100.00;97814.91;5052629;28;20429;-75
2021/12/13 12:04:00;;;;;;;8.53;5.60;;;;;;;4.73;100.00;97815.94;5052824;28;20499;-76
2021/12/13 12:06:54;;;;;;;7.20;6.40;;;;;;;4.91;100.00;97815.53;5052834;28;20863;-76
2021/12/13 12:09:30;;;;;;;9.13;7.37;;;;;;;4.92;100.00;97818.94;5052483;28;20429;-75
2021/12/13 12:12:22;;;;;;;7.67;6.03;;;;;;;4.82;100.00;97818.91;5052869;28;20441;-76
2021/12/13 12:14:59;;;;;;;9.73;6.27;;;;;;;4.66;100.00;97816.13;5052446;28;20425;-75
2021/12/13 12:17:28;;;;;;;9.03;6.90;;;;;;;4.63;100.00;97808.00;5069080;28;20461;-75
2021/12/13 12:19:56;;;;;;;9.97;8.00;;;;;;;4.59;100.00;97799.88;5035905;28;20480;-75
2021/12/13 12:22:31;;;;;;;8.10;6.67;;;;;;;4.48;100.00;97792.19;5069010;28;20483;-75